Stations météo

Publicité
Toulon Arsenal, France (7660): Température de l'air & dewpoint: 24.03.2020 14:00:00 - 30.03.2020 14:00:00 (CEST)Toulon Arsenal, France (7660): Vitesse du vent & gusts: 24.03.2020 14:00:00 - 30.03.2020 14:00:00 (CEST)Toulon Arsenal, France (7660): Direction du vent: 24.03.2020 14:00:00 - 30.03.2020 14:00:00 (CEST)Toulon Arsenal, France (7660): reduced air pressure: 24.03.2020 14:00:00 - 30.03.2020 14:00:00 (CEST)Toulon Arsenal, France (7660): Quantités de précipitations: 24.03.2020 14:00:00 - 30.03.2020 14:00:00 (CEST)
Date & Time tt [°C] td [°C] ff [km/h] ff [knt] fx [km/h] fx [knt] dd ppp [hPa] rr [mm]
30.03.2020 14:00:00 - - - - - - - - -
30.03.2020 13:00:00 15,8 10,8 16 8 23 13 SE 1013,4 0,0
30.03.2020 12:00:00 15,3 10,1 9 5 15 8 SSE 1013,1 0,0
30.03.2020 11:00:00 14,3 9,5 6 3 12 6 SE 1013,4 0,0
30.03.2020 10:00:00 13,3 9,0 4 2 9 5 E 1013,2 0,0
30.03.2020 09:00:00 11,5 8,4 4 2 10 5 WSW 1012,5 0,2
30.03.2020 08:00:00 8,9 7,7 0 0 8 4 N 1012,1 0,0
30.03.2020 07:00:00 8,4 7,0 5 3 11 6 NNW 1011,5 0,0
30.03.2020 06:00:00 8,4 7,0 3 2 8 4 N 1011,1 0,0
30.03.2020 05:00:00 8,9 7,3 2 1 7 4 N 1011,2 0,0
30.03.2020 04:00:00 10,2 8,6 3 1 11 6 NW 1011,5 0,0
30.03.2020 03:00:00 9,9 8,5 5 3 9 5 NNW 1011,6 0,0
30.03.2020 02:00:00 10,8 9,2 5 3 10 5 N 1011,9 0,0
30.03.2020 01:00:00 11,9 9,6 4 2 8 4 N 1012,1 0,0
30.03.2020 00:00:00 12,8 10,7 0 0 6 3 N 1012,2 0,0
29.03.2020 23:00:00 12,1 10,3 2 1 6 3 W 1012,2 0,0
29.03.2020 22:00:00 11,9 9,5 2 1 13 7 NW 1012,1 0,0
29.03.2020 21:00:00 14,0 10,6 6 3 19 11 ESE 1011,6 0,0
29.03.2020 20:00:00 14,3 10,5 12 6 20 11 SE 1011,3 0,0
29.03.2020 19:00:00 14,7 11,1 10 5 21 11 SE 1011,2 0,0
29.03.2020 18:00:00 15,1 11,3 13 7 21 11 SE 1011,2 0,0
29.03.2020 17:00:00 15,3 11,3 9 5 24 13 SE 1011,5 0,0
29.03.2020 16:00:00 15,9 10,9 17 9 27 15 SE 1011,6 0,0
29.03.2020 15:00:00 16,3 10,2 13 7 27 15 SE 1012,0 0,0
29.03.2020 14:00:00 16,2 10,5 16 9 30 16 SE 1012,4 0,0
29.03.2020 13:00:00 16,0 10,3 17 9 32 17 SE 1012,6 0,0
29.03.2020 12:00:00 15,4 10,0 19 10 31 17 SE 1012,8 0,0
29.03.2020 11:00:00 15,5 8,0 13 7 25 14 ESE 1012,9 0,0
29.03.2020 10:00:00 13,6 7,6 3 1 7 4 SW 1013,1 0,0
29.03.2020 09:00:00 10,1 6,2 2 1 6 3 WSW 1013,0 0,0
29.03.2020 08:00:00 6,2 4,2 0 0 4 2 N 1012,9 0,0
29.03.2020 07:00:00 6,0 3,8 0 0 3 2 N 1012,8 0,0
29.03.2020 06:00:00 6,6 3,7 0 0 4 2 N 1013,0 0,0
29.03.2020 05:00:00 7,3 3,9 3 1 6 3 NNE 1013,5 0,0
29.03.2020 04:00:00 8,1 4,3 0 0 5 3 N 1013,8 0,0
29.03.2020 03:00:00 8,8 4,4 3 2 5 3 N 1014,3 0,0
29.03.2020 02:00:00 9,9 4,7 4 2 10 5 WNW 1014,8 0,0
29.03.2020 01:00:00 12,4 5,5 7 4 13 7 W 1014,9 0,0
29.03.2020 00:00:00 13,0 7,0 7 4 21 12 W 1015,1 0,0
28.03.2020 23:00:00 13,0 7,4 8 5 19 10 W 1015,1 0,0
28.03.2020 22:00:00 13,0 7,7 10 5 22 12 W 1015,3 0,0
28.03.2020 21:00:00 13,3 7,1 11 6 21 12 W 1015,2 0,0
28.03.2020 20:00:00 13,4 6,7 12 6 26 14 W 1015,0 0,0
28.03.2020 19:00:00 14,6 6,7 12 7 27 15 W 1014,9 0,0
28.03.2020 18:00:00 15,2 6,7 14 8 27 15 W 1014,8 0,0
28.03.2020 17:00:00 15,9 7,6 14 7 29 16 W 1015,1 0,0
28.03.2020 16:00:00 16,4 8,1 16 8 31 17 W 1015,4 0,0
28.03.2020 15:00:00 16,6 6,1 17 9 29 16 WSW 1015,7 0,0
28.03.2020 14:00:00 16,5 7,7 16 8 30 16 W 1016,2 0,0
28.03.2020 13:00:00 16,8 6,3 14 8 31 17 W 1016,1 0,0
28.03.2020 12:00:00 16,3 6,4 12 6 24 13 WSW 1016,6 0,0
28.03.2020 11:00:00 15,6 5,5 14 8 23 12 WSW 1016,7 0,0
28.03.2020 10:00:00 13,7 7,0 2 1 6 3 W 1016,5 0,0
28.03.2020 09:00:00 10,8 6,9 3 2 6 3 W 1016,3 0,0
28.03.2020 08:00:00 9,2 6,5 2 1 6 3 WNW 1016,1 0,0
28.03.2020 07:00:00 9,3 6,4 2 1 5 3 NNW 1015,9 0,0
28.03.2020 06:00:00 9,7 6,2 4 2 8 4 N 1015,8 0,0
28.03.2020 05:00:00 9,0 5,9 0 0 6 4 N 1016,0 0,0
28.03.2020 04:00:00 10,4 6,7 4 2 6 3 WNW 1016,3 0,0
28.03.2020 03:00:00 10,5 6,4 3 1 5 3 NW 1016,4 0,0
28.03.2020 02:00:00 11,5 6,0 2 1 12 7 N 1016,4 0,0
28.03.2020 01:00:00 11,3 6,2 5 3 14 8 N 1016,4 0,0
28.03.2020 00:00:00 11,7 5,3 7 4 13 7 N 1016,4 0,0
27.03.2020 23:00:00 11,2 6,5 3 1 5 3 NNW 1016,0 0,0
27.03.2020 22:00:00 11,5 6,2 2 1 5 3 WNW 1015,5 0,0
27.03.2020 21:00:00 12,2 6,0 2 1 8 5 NW 1014,7 0,0
27.03.2020 20:00:00 13,1 5,3 3 2 10 5 WNW 1013,9 0,0
27.03.2020 19:00:00 13,8 3,3 5 3 14 8 W 1013,3 0,0
27.03.2020 18:00:00 14,6 2,8 4 2 10 6 W 1012,8 0,0
27.03.2020 17:00:00 14,4 3,5 6 3 16 8 W 1012,5 0,0
27.03.2020 16:00:00 14,6 2,5 10 5 23 12 WSW 1012,4 0,0
27.03.2020 15:00:00 14,7 4,4 10 6 21 11 W 1012,1 0,0
27.03.2020 14:00:00 13,5 4,1 11 6 21 12 W 1012,3 0,0
27.03.2020 13:00:00 13,2 4,1 9 5 18 10 W 1012,4 0,0
27.03.2020 12:00:00 13,6 3,1 4 2 13 7 NW 1012,4 0,0
27.03.2020 11:00:00 12,3 2,2 8 4 21 12 WSW 1012,1 0,0
27.03.2020 10:00:00 11,1 3,6 11 6 19 10 WSW 1011,5 0,0
27.03.2020 09:00:00 9,6 4,0 8 5 21 12 W 1011,1 0,0
27.03.2020 08:00:00 9,3 5,1 9 5 18 10 W 1011,1 0,0
27.03.2020 07:00:00 9,8 4,8 6 4 16 8 W 1010,7 0,0
27.03.2020 06:00:00 8,8 4,2 5 3 11 6 WNW 1010,7 0,0
27.03.2020 05:00:00 8,4 3,8 3 2 7 4 NW 1011,0 0,0
27.03.2020 04:00:00 8,4 2,8 4 2 11 6 N 1011,3 0,0
27.03.2020 03:00:00 8,7 2,7 3 2 17 9 NNE 1011,8 0,0
27.03.2020 02:00:00 9,8 0,1 8 4 21 11 E 1011,8 0,0
27.03.2020 01:00:00 10,3 -1,8 6 4 14 8 E 1011,8 0,0
27.03.2020 00:00:00 9,5 -0,1 5 3 10 5 N 1011,8 0,0
26.03.2020 23:00:00 10,1 -1,0 4 2 13 7 NNE 1011,8 0,0
26.03.2020 22:00:00 8,4 0,6 4 2 10 5 N 1011,4 0,0
26.03.2020 21:00:00 10,4 -0,7 7 4 15 8 N 1010,9 0,0
26.03.2020 20:00:00 12,0 -1,2 10 5 42 23 W 1010,0 0,0
26.03.2020 19:00:00 12,6 0,7 19 10 40 22 W 1009,6 0,0
26.03.2020 18:00:00 14,7 -1,8 13 7 27 15 SW 1009,4 0,0
26.03.2020 17:00:00 13,3 -2,3 12 7 27 15 SW 1010,0 0,0
26.03.2020 16:00:00 12,9 -4,3 13 7 39 21 WSW 1010,3 0,0
26.03.2020 15:00:00 11,5 -4,7 14 7 24 13 S 1010,5 0,0
26.03.2020 14:00:00 12,3 -4,4 14 8 25 13 SSE 1010,9 0,0
26.03.2020 13:00:00 12,4 -6,6 10 5 19 10 SSE 1011,1 0,0
26.03.2020 12:00:00 12,3 -8,3 5 3 17 9 ESE 1011,3 0,0
26.03.2020 11:00:00 11,2 -3,3 6 3 16 9 SE 1011,3 0,0
26.03.2020 10:00:00 9,0 -0,1 4 2 9 5 ESE 1011,4 0,2
26.03.2020 09:00:00 5,7 -1,0 5 3 12 7 NE 1011,3 0,0
26.03.2020 08:00:00 0,8 -1,4 2 1 10 5 WNW 1011,5 0,0
26.03.2020 07:00:00 2,7 -1,8 5 3 11 6 NE 1011,2 0,0
26.03.2020 06:00:00 1,4 -0,8 4 2 9 5 NE 1011,7 0,0
26.03.2020 05:00:00 1,0 -0,8 4 2 10 5 NNE 1012,1 0,0
26.03.2020 04:00:00 1,6 -0,5 3 2 11 6 N 1012,7 0,0
26.03.2020 03:00:00 2,1 0,5 3 2 9 5 W 1013,5 0,0
26.03.2020 02:00:00 2,8 1,5 8 4 10 5 N 1014,0 0,0
26.03.2020 01:00:00 3,8 2,8 5 3 8 4 NNW 1014,7 0,0
26.03.2020 00:00:00 4,4 3,5 3 2 5 3 N 1015,2 0,0
25.03.2020 23:00:00 4,9 3,4 3 1 10 5 WNW 1015,8 0,0
25.03.2020 22:00:00 4,9 3,7 3 1 9 5 WNW 1015,8 0,0
25.03.2020 21:00:00 5,1 3,4 3 2 13 7 WNW 1015,9 0,0
25.03.2020 20:00:00 5,5 2,7 9 5 23 13 WNW 1015,8 0,0
25.03.2020 19:00:00 5,0 3,2 5 3 22 12 N 1016,5 0,8
25.03.2020 18:00:00 5,8 2,4 12 7 28 15 E 1016,8 1,2
25.03.2020 17:00:00 6,4 3,4 4 2 29 16 N 1016,8 0,4
25.03.2020 16:00:00 7,7 1,3 15 8 31 17 ESE 1017,1 0,2
25.03.2020 15:00:00 9,5 -0,1 8 5 30 16 SSW 1017,1 0,0
25.03.2020 14:00:00 10,3 0,0 16 9 36 19 ESE 1017,3 0,0
25.03.2020 13:00:00 11,8 -0,4 9 5 26 14 SSE 1017,5 0,0
25.03.2020 12:00:00 11,8 -1,0 11 6 31 17 E 1018,2 0,0
25.03.2020 11:00:00 10,2 0,5 5 3 11 6 E 1018,8 0,0
25.03.2020 10:00:00 8,7 0,6 0 0 8 4 N 1019,1 0,0
25.03.2020 09:00:00 7,0 0,2 3 1 10 6 W 1019,2 0,0
25.03.2020 08:00:00 3,9 -0,9 7 4 15 8 N 1019,3 0,0
25.03.2020 07:00:00 6,6 -0,6 10 5 19 10 E 1019,5 0,0
25.03.2020 06:00:00 6,3 -0,2 4 2 39 21 NNW 1019,4 0,0
25.03.2020 05:00:00 4,2 -2,0 6 3 11 6 NNW 1019,3 0,0
25.03.2020 04:00:00 3,7 -1,7 2 1 9 5 N 1020,1 0,0
25.03.2020 03:00:00 4,1 -1,7 3 2 13 7 W 1020,6 0,0
25.03.2020 02:00:00 4,9 -1,8 6 4 12 7 N 1021,1 0,0
25.03.2020 01:00:00 5,5 -2,1 5 3 14 8 NW 1021,4 0,0
25.03.2020 00:00:00 7,1 -2,1 6 3 12 7 N 1021,5 0,0
24.03.2020 23:00:00 8,1 -2,6 5 3 14 8 NNW 1021,7 0,0
24.03.2020 22:00:00 8,6 -3,3 5 3 22 12 N 1021,8 0,0
24.03.2020 21:00:00 9,5 -6,0 3 2 18 10 NE 1021,7 0,0
24.03.2020 20:00:00 9,9 -4,1 7 4 19 10 E 1021,8 0,0
24.03.2020 19:00:00 10,1 -4,0 11 6 30 16 E 1021,8 0,0
24.03.2020 18:00:00 9,9 -2,1 11 6 28 15 E 1022,2 0,0
24.03.2020 17:00:00 10,0 -2,0 11 6 37 20 E 1022,5 0,0
24.03.2020 16:00:00 9,8 -1,3 12 7 33 18 E 1022,9 0,0
24.03.2020 15:00:00 9,7 -1,1 11 6 36 20 E 1023,6 0,0
24.03.2020 14:00:00 - - - - - - - - -

tt = Température de l'air
td = dewpoint
ff = Vitesse du vent
fx = gusts
dd = Direction du vent
ppp = reduced air pressure
rr = Quantités de précipitations

stations d'obs. à proximité